sensor_id;sensor_type;location;lat;lon;timestamp;pressure;altitude;pressure_sealevel;temperature;humidity
11605;BME280;5858;43.076;25.626;2023-10-19T00:02:05;99385.41;;;10.23;84.87
11605;BME280;5858;43.076;25.626;2023-10-19T00:04:34;99351.19;;;9.96;85.51
11605;BME280;5858;43.076;25.626;2023-10-19T00:07:01;99329.38;;;9.84;85.40
11605;BME280;5858;43.076;25.626;2023-10-19T00:09:31;99357.66;;;10.01;85.89
11605;BME280;5858;43.076;25.626;2023-10-19T00:12:03;99358.50;;;10.02;85.50
11605;BME280;5858;43.076;25.626;2023-10-19T00:14:32;99261.56;;;9.39;85.95
11605;BME280;5858;43.076;25.626;2023-10-19T00:16:58;99344.00;;;9.96;86.15
11605;BME280;5858;43.076;25.626;2023-10-19T00:19:33;99333.16;;;9.90;86.06
11605;BME280;5858;43.076;25.626;2023-10-19T00:22:05;99346.69;;;9.96;86.32
11605;BME280;5858;43.076;25.626;2023-10-19T00:24:37;99342.44;;;10.02;86.13
11605;BME280;5858;43.076;25.626;2023-10-19T00:27:04;99316.94;;;9.91;86.45
11605;BME280;5858;43.076;25.626;2023-10-19T00:29:41;99294.03;;;9.74;86.03
11605;BME280;5858;43.076;25.626;2023-10-19T00:32:15;99332.34;;;9.89;87.01
11605;BME280;5858;43.076;25.626;2023-10-19T00:34:45;99305.19;;;9.77;86.94
11605;BME280;5858;43.076;25.626;2023-10-19T00:37:17;99333.31;;;9.96;86.31
11605;BME280;5858;43.076;25.626;2023-10-19T00:39:54;99326.69;;;9.84;86.66
11605;BME280;5858;43.076;25.626;2023-10-19T00:42:23;99322.28;;;9.91;85.72
11605;BME280;5858;43.076;25.626;2023-10-19T00:44:52;99322.66;;;9.88;85.78
11605;BME280;5858;43.076;25.626;2023-10-19T00:47:28;99317.03;;;9.83;85.96
11605;BME280;5858;43.076;25.626;2023-10-19T00:50:07;99314.16;;;9.85;85.83
11605;BME280;5858;43.076;25.626;2023-10-19T00:52:44;99274.38;;;9.44;87.19
11605;BME280;5858;43.076;25.626;2023-10-19T00:55:15;99321.59;;;9.74;86.67
11605;BME280;5858;43.076;25.626;2023-10-19T00:57:44;99314.22;;;9.76;86.67
11605;BME280;5858;43.076;25.626;2023-10-19T01:00:15;99319.88;;;9.82;86.13
11605;BME280;5858;43.076;25.626;2023-10-19T01:02:56;99290.50;;;9.59;85.88
11605;BME280;5858;43.076;25.626;2023-10-19T01:05:26;99316.72;;;9.78;86.02
11605;BME280;5858;43.076;25.626;2023-10-19T01:08:01;99288.41;;;9.46;86.96
11605;BME280;5858;43.076;25.626;2023-10-19T01:10:40;99305.56;;;9.52;87.32
11605;BME280;5858;43.076;25.626;2023-10-19T01:13:10;99309.06;;;9.52;87.53
11605;BME280;5858;43.076;25.626;2023-10-19T01:15:37;99313.69;;;9.58;87.16
11605;BME280;5858;43.076;25.626;2023-10-19T01:18:06;99208.94;;;8.94;86.65
11605;BME280;5858;43.076;25.626;2023-10-19T01:20:37;99270.44;;;9.32;86.65
11605;BME280;5858;43.076;25.626;2023-10-19T01:23:17;99330.56;;;9.59;86.70
11605;BME280;5858;43.076;25.626;2023-10-19T01:25:52;99302.91;;;9.43;86.95
11605;BME280;5858;43.076;25.626;2023-10-19T01:28:27;99211.13;;;8.91;86.77
11605;BME280;5858;43.076;25.626;2023-10-19T01:31:08;99309.72;;;9.54;86.96
11605;BME280;5858;43.076;25.626;2023-10-19T01:33:41;99231.44;;;9.00;87.05
11605;BME280;5858;43.076;25.626;2023-10-19T01:36:09;99308.59;;;9.40;87.92
11605;BME280;5858;43.076;25.626;2023-10-19T01:38:41;99304.81;;;9.35;87.71
11605;BME280;5858;43.076;25.626;2023-10-19T01:41:08;99301.78;;;9.38;87.63
11605;BME280;5858;43.076;25.626;2023-10-19T01:43:41;99308.59;;;9.49;87.05
11605;BME280;5858;43.076;25.626;2023-10-19T01:46:08;99253.03;;;9.13;86.94
11605;BME280;5858;43.076;25.626;2023-10-19T01:48:38;99303.84;;;9.28;87.17
11605;BME280;5858;43.076;25.626;2023-10-19T01:51:07;99309.44;;;9.41;87.74
11605;BME280;5858;43.076;25.626;2023-10-19T01:53:36;99306.28;;;9.37;88.25
11605;BME280;5858;43.076;25.626;2023-10-19T01:56:06;99313.75;;;9.19;89.39
11605;BME280;5858;43.076;25.626;2023-10-19T01:58:36;99227.25;;;8.66;88.87
11605;BME280;5858;43.076;25.626;2023-10-19T02:01:03;99329.94;;;9.18;88.73
11605;BME280;5858;43.076;25.626;2023-10-19T02:03:34;99309.06;;;9.21;88.92
11605;BME280;5858;43.076;25.626;2023-10-19T02:06:01;99310.50;;;9.32;88.00
11605;BME280;5858;43.076;25.626;2023-10-19T02:08:36;99182.44;;;8.62;87.87
11605;BME280;5858;43.076;25.626;2023-10-19T02:11:06;99301.88;;;9.22;88.26
11605;BME280;5858;43.076;25.626;2023-10-19T02:13:44;99250.31;;;8.90;87.97
11605;BME280;5858;43.076;25.626;2023-10-19T02:16:13;99220.69;;;8.77;87.96
11605;BME280;5858;43.076;25.626;2023-10-19T02:18:42;99272.13;;;9.02;87.48
11605;BME280;5858;43.076;25.626;2023-10-19T02:21:08;99269.94;;;9.05;87.81
11605;BME280;5858;43.076;25.626;2023-10-19T02:23:38;99225.31;;;8.44;88.81
11605;BME280;5858;43.076;25.626;2023-10-19T02:26:08;99250.34;;;8.82;88.66
11605;BME280;5858;43.076;25.626;2023-10-19T02:28:35;99263.72;;;8.74;88.58
11605;BME280;5858;43.076;25.626;2023-10-19T02:31:04;99290.41;;;9.13;88.09
11605;BME280;5858;43.076;25.626;2023-10-19T02:33:38;99169.53;;;8.26;88.34
11605;BME280;5858;43.076;25.626;2023-10-19T02:36:06;99290.16;;;9.00;88.33
11605;BME280;5858;43.076;25.626;2023-10-19T02:38:39;99285.00;;;8.90;88.56
11605;BME280;5858;43.076;25.626;2023-10-19T02:41:08;99191.00;;;8.41;88.82
11605;BME280;5858;43.076;25.626;2023-10-19T02:43:35;99276.16;;;8.90;88.71
11605;BME280;5858;43.076;25.626;2023-10-19T02:46:03;99287.31;;;8.93;88.42
11605;BME280;5858;43.076;25.626;2023-10-19T02:48:29;99286.84;;;8.90;88.92
11605;BME280;5858;43.076;25.626;2023-10-19T02:50:56;99292.53;;;8.87;88.82
11605;BME280;5858;43.076;25.626;2023-10-19T02:53:32;99278.00;;;8.89;88.95
11605;BME280;5858;43.076;25.626;2023-10-19T02:55:59;99289.69;;;8.88;88.92
11605;BME280;5858;43.076;25.626;2023-10-19T02:58:28;99197.06;;;8.18;89.03
11605;BME280;5858;43.076;25.626;2023-10-19T03:00:54;99279.06;;;8.72;89.53
11605;BME280;5858;43.076;25.626;2023-10-19T03:03:20;99292.59;;;8.70;89.64
11605;BME280;5858;43.076;25.626;2023-10-19T03:05:47;99228.84;;;8.28;89.95
11605;BME280;5858;43.076;25.626;2023-10-19T03:08:13;99281.75;;;8.72;89.98
11605;BME280;5858;43.076;25.626;2023-10-19T03:10:43;99286.03;;;8.81;89.17
11605;BME280;5858;43.076;25.626;2023-10-19T03:13:08;99188.91;;;8.12;89.54
11605;BME280;5858;43.076;25.626;2023-10-19T03:15:38;99228.00;;;8.36;89.45
11605;BME280;5858;43.076;25.626;2023-10-19T03:18:08;99257.16;;;8.54;89.39
11605;BME280;5858;43.076;25.626;2023-10-19T03:20:37;99295.25;;;8.70;89.44
11605;BME280;5858;43.076;25.626;2023-10-19T03:23:05;99281.59;;;8.65;89.72
11605;BME280;5858;43.076;25.626;2023-10-19T03:25:32;99195.09;;;7.88;90.31
11605;BME280;5858;43.076;25.626;2023-10-19T03:28:30;99276.66;;;8.54;90.04
11605;BME280;5858;43.076;25.626;2023-10-19T03:31:02;99250.66;;;8.40;89.48
11605;BME280;5858;43.076;25.626;2023-10-19T03:33:29;99260.66;;;8.46;89.54
11605;BME280;5858;43.076;25.626;2023-10-19T03:35:57;99269.97;;;8.50;89.82
11605;BME280;5858;43.076;25.626;2023-10-19T03:38:24;99271.13;;;8.47;89.88
11605;BME280;5858;43.076;25.626;2023-10-19T03:40:52;99279.59;;;8.67;89.87
11605;BME280;5858;43.076;25.626;2023-10-19T03:43:25;99274.13;;;8.61;89.87
11605;BME280;5858;43.076;25.626;2023-10-19T03:45:53;99212.22;;;8.18;89.90
11605;BME280;5858;43.076;25.626;2023-10-19T03:48:22;99244.16;;;8.42;89.75
11605;BME280;5858;43.076;25.626;2023-10-19T03:50:53;99175.44;;;8.05;88.82
11605;BME280;5858;43.076;25.626;2023-10-19T03:53:22;99261.44;;;8.63;88.91
11605;BME280;5858;43.076;25.626;2023-10-19T03:55:49;99259.13;;;8.60;88.62
11605;BME280;5858;43.076;25.626;2023-10-19T03:58:18;99204.22;;;8.18;88.22
11605;BME280;5858;43.076;25.626;2023-10-19T04:00:46;99129.59;;;7.63;88.53
11605;BME280;5858;43.076;25.626;2023-10-19T04:03:14;99241.03;;;8.23;89.25
11605;BME280;5858;43.076;25.626;2023-10-19T04:05:44;99126.06;;;7.54;89.36
11605;BME280;5858;43.076;25.626;2023-10-19T04:08:14;99253.66;;;8.45;88.67
11605;BME280;5858;43.076;25.626;2023-10-19T04:10:46;99251.00;;;8.29;89.12
11605;BME280;5858;43.076;25.626;2023-10-19T04:13:34;99258.69;;;8.15;90.24
11605;BME280;5858;43.076;25.626;2023-10-19T04:16:01;99252.84;;;8.04;91.72
11605;BME280;5858;43.076;25.626;2023-10-19T04:18:28;99257.34;;;8.19;91.05
11605;BME280;5858;43.076;25.626;2023-10-19T04:20:56;99255.00;;;8.25;90.48
11605;BME280;5858;43.076;25.626;2023-10-19T04:23:24;99221.75;;;7.88;90.43
11605;BME280;5858;43.076;25.626;2023-10-19T04:25:55;99248.53;;;8.19;91.18
11605;BME280;5858;43.076;25.626;2023-10-19T04:28:23;99234.56;;;8.09;90.62
11605;BME280;5858;43.076;25.626;2023-10-19T04:31:03;99257.53;;;8.10;91.61
11605;BME280;5858;43.076;25.626;2023-10-19T04:33:32;99054.28;;;6.81;91.90
11605;BME280;5858;43.076;25.626;2023-10-19T04:36:03;99164.84;;;7.65;91.74
11605;BME280;5858;43.076;25.626;2023-10-19T04:38:34;99231.22;;;8.07;91.52
11605;BME280;5858;43.076;25.626;2023-10-19T04:41:06;99170.69;;;7.68;92.80
11605;BME280;5858;43.076;25.626;2023-10-19T04:43:36;99247.53;;;8.20;93.30
11605;BME280;5858;43.076;25.626;2023-10-19T04:46:06;99171.19;;;7.64;93.73
11605;BME280;5858;43.076;25.626;2023-10-19T04:48:36;99237.53;;;8.14;93.77
11605;BME280;5858;43.076;25.626;2023-10-19T04:51:07;99165.34;;;7.68;93.67
11605;BME280;5858;43.076;25.626;2023-10-19T04:53:35;99242.69;;;8.24;94.02
11605;BME280;5858;43.076;25.626;2023-10-19T04:56:03;99136.56;;;7.64;93.73
11605;BME280;5858;43.076;25.626;2023-10-19T04:58:30;99248.31;;;8.45;93.79
11605;BME280;5858;43.076;25.626;2023-10-19T05:00:59;99250.97;;;8.45;94.01
11605;BME280;5858;43.076;25.626;2023-10-19T05:03:29;99264.47;;;8.60;93.47
11605;BME280;5858;43.076;25.626;2023-10-19T05:05:56;99144.63;;;8.03;93.36
11605;BME280;5858;43.076;25.626;2023-10-19T05:08:25;99219.63;;;8.55;92.80
11605;BME280;5858;43.076;25.626;2023-10-19T05:10:54;99186.69;;;8.32;91.63
11605;BME280;5858;43.076;25.626;2023-10-19T05:13:21;99083.72;;;7.92;91.45
11605;BME280;5858;43.076;25.626;2023-10-19T05:15:48;99188.72;;;8.69;89.79
11605;BME280;5858;43.076;25.626;2023-10-19T05:18:16;99215.25;;;9.01;88.64
11605;BME280;5858;43.076;25.626;2023-10-19T05:20:43;99251.41;;;9.35;88.20
11605;BME280;5858;43.076;25.626;2023-10-19T05:23:13;99250.69;;;9.41;87.53
11605;BME280;5858;43.076;25.626;2023-10-19T05:25:41;99248.47;;;9.53;87.76
11605;BME280;5858;43.076;25.626;2023-10-19T05:28:08;99254.41;;;9.63;87.14
11605;BME280;5858;43.076;25.626;2023-10-19T05:30:36;99226.38;;;9.59;86.62
11605;BME280;5858;43.076;25.626;2023-10-19T05:33:03;99248.84;;;9.87;85.83
11605;BME280;5858;43.076;25.626;2023-10-19T05:35:32;99226.75;;;9.93;85.22
11605;BME280;5858;43.076;25.626;2023-10-19T05:38:10;99139.50;;;9.48;84.75
11605;BME280;5858;43.076;25.626;2023-10-19T05:40:37;99248.34;;;10.06;85.78
11605;BME280;5858;43.076;25.626;2023-10-19T05:43:05;99180.31;;;9.94;84.33
11605;BME280;5858;43.076;25.626;2023-10-19T05:45:33;99250.44;;;10.63;83.68
11605;BME280;5858;43.076;25.626;2023-10-19T05:48:02;99192.34;;;10.43;82.46
11605;BME280;5858;43.076;25.626;2023-10-19T05:50:32;99228.28;;;11.20;80.22
11605;BME280;5858;43.076;25.626;2023-10-19T05:52:59;99252.13;;;11.73;78.80
11605;BME280;5858;43.076;25.626;2023-10-19T05:55:28;99253.75;;;12.16;76.60
11605;BME280;5858;43.076;25.626;2023-10-19T05:57:55;99212.66;;;12.09;74.78
11605;BME280;5858;43.076;25.626;2023-10-19T06:00:24;99147.78;;;11.92;74.22
11605;BME280;5858;43.076;25.626;2023-10-19T06:02:54;99137.06;;;11.92;74.33
11605;BME280;5858;43.076;25.626;2023-10-19T06:05:21;99234.69;;;12.67;73.83
11605;BME280;5858;43.076;25.626;2023-10-19T06:07:50;99245.06;;;12.77;73.86
11605;BME280;5858;43.076;25.626;2023-10-19T06:10:18;99246.75;;;12.78;75.05
11605;BME280;5858;43.076;25.626;2023-10-19T06:12:48;99207.38;;;12.57;75.38
11605;BME280;5858;43.076;25.626;2023-10-19T06:15:16;99249.66;;;12.83;75.06
11605;BME280;5858;43.076;25.626;2023-10-19T06:17:45;99259.59;;;12.89;75.04
11605;BME280;5858;43.076;25.626;2023-10-19T06:20:14;99242.91;;;13.00;74.98
11605;BME280;5858;43.076;25.626;2023-10-19T06:22:50;99248.94;;;13.09;75.01
11605;BME280;5858;43.076;25.626;2023-10-19T06:25:19;99241.56;;;13.24;77.10
11605;BME280;5858;43.076;25.626;2023-10-19T06:27:47;99062.91;;;12.19;78.37
11605;BME280;5858;43.076;25.626;2023-10-19T06:30:15;99246.19;;;13.43;78.53
11605;BME280;5858;43.076;25.626;2023-10-19T06:32:47;99251.16;;;13.53;77.97
11605;BME280;5858;43.076;25.626;2023-10-19T06:35:18;99215.97;;;13.35;77.51
11605;BME280;5858;43.076;25.626;2023-10-19T06:37:46;99175.41;;;13.23;77.03
11605;BME280;5858;43.076;25.626;2023-10-19T06:40:15;99198.19;;;13.34;76.88
11605;BME280;5858;43.076;25.626;2023-10-19T06:42:42;99070.09;;;12.60;76.59
11605;BME280;5858;43.076;25.626;2023-10-19T06:45:11;99254.28;;;13.70;77.66
11605;BME280;5858;43.076;25.626;2023-10-19T06:47:40;99235.66;;;13.68;78.19
11605;BME280;5858;43.076;25.626;2023-10-19T06:50:11;99251.00;;;13.74;77.77
11605;BME280;5858;43.076;25.626;2023-10-19T06:52:41;99249.78;;;13.83;78.32
11605;BME280;5858;43.076;25.626;2023-10-19T06:55:14;99197.59;;;13.65;77.80
11605;BME280;5858;43.076;25.626;2023-10-19T06:57:50;99238.59;;;14.00;77.30
11605;BME280;5858;43.076;25.626;2023-10-19T07:00:19;99216.47;;;13.91;76.77
11605;BME280;5858;43.076;25.626;2023-10-19T07:02:48;99190.59;;;13.83;76.03
11605;BME280;5858;43.076;25.626;2023-10-19T07:05:18;99194.31;;;14.02;76.31
11605;BME280;5858;43.076;25.626;2023-10-19T07:07:48;99223.06;;;14.28;76.45
11605;BME280;5858;43.076;25.626;2023-10-19T07:10:17;99229.84;;;14.64;74.73
11605;BME280;5858;43.076;25.626;2023-10-19T07:12:47;99163.88;;;14.22;74.14
11605;BME280;5858;43.076;25.626;2023-10-19T07:15:15;99210.78;;;14.72;73.48
11605;BME280;5858;43.076;25.626;2023-10-19T07:17:45;99179.72;;;14.69;73.59
11605;BME280;5858;43.076;25.626;2023-10-19T07:20:14;99229.88;;;15.08;71.97
11605;BME280;5858;43.076;25.626;2023-10-19T07:22:52;99201.34;;;14.94;71.24
11605;BME280;5858;43.076;25.626;2023-10-19T07:25:19;99223.38;;;15.29;70.42
11605;BME280;5858;43.076;25.626;2023-10-19T07:27:48;99188.75;;;15.26;69.53
11605;BME280;5858;43.076;25.626;2023-10-19T07:30:15;99213.44;;;15.55;70.21
11605;BME280;5858;43.076;25.626;2023-10-19T07:32:49;99210.50;;;15.69;68.61
11605;BME280;5858;43.076;25.626;2023-10-19T07:35:24;99192.66;;;15.68;68.04
11605;BME280;5858;43.076;25.626;2023-10-19T07:37:52;99125.00;;;15.38;67.04
11605;BME280;5858;43.076;25.626;2023-10-19T07:40:21;99244.63;;;16.07;65.01
11605;BME280;5858;43.076;25.626;2023-10-19T07:42:49;99099.91;;;15.38;63.85
11605;BME280;5858;43.076;25.626;2023-10-19T07:45:17;99197.91;;;16.06;63.89
11605;BME280;5858;43.076;25.626;2023-10-19T07:47:44;99211.09;;;16.21;63.03
11605;BME280;5858;43.076;25.626;2023-10-19T07:50:12;99206.22;;;16.30;62.32
11605;BME280;5858;43.076;25.626;2023-10-19T07:52:42;99110.69;;;15.69;61.86
11605;BME280;5858;43.076;25.626;2023-10-19T07:55:13;99201.81;;;16.54;60.60
11605;BME280;5858;43.076;25.626;2023-10-19T07:57:41;99198.63;;;16.63;60.34
11605;BME280;5858;43.076;25.626;2023-10-19T08:00:09;99207.28;;;16.72;59.80
11605;BME280;5858;43.076;25.626;2023-10-19T08:02:37;99202.97;;;16.83;58.53
11605;BME280;5858;43.076;25.626;2023-10-19T08:05:07;99203.28;;;16.93;59.12
11605;BME280;5858;43.076;25.626;2023-10-19T08:07:34;99154.06;;;16.73;58.78
11605;BME280;5858;43.076;25.626;2023-10-19T08:10:02;99201.75;;;16.97;56.67
11605;BME280;5858;43.076;25.626;2023-10-19T08:12:32;99201.47;;;17.05;57.31
11605;BME280;5858;43.076;25.626;2023-10-19T08:14:59;99146.41;;;16.70;55.96
11605;BME280;5858;43.076;25.626;2023-10-19T08:17:26;99192.63;;;17.28;56.94
11605;BME280;5858;43.076;25.626;2023-10-19T08:19:53;99100.97;;;16.78;54.89
11605;BME280;5858;43.076;25.626;2023-10-19T08:22:20;99191.28;;;17.49;53.91
11605;BME280;5858;43.076;25.626;2023-10-19T08:24:49;99112.50;;;17.04;52.30
11605;BME280;5858;43.076;25.626;2023-10-19T08:27:17;99161.31;;;17.50;52.03
11605;BME280;5858;43.076;25.626;2023-10-19T08:29:46;99179.16;;;17.81;51.76
11605;BME280;5858;43.076;25.626;2023-10-19T08:32:14;99169.63;;;17.79;50.30
11605;BME280;5858;43.076;25.626;2023-10-19T08:34:41;99142.78;;;17.77;50.66
11605;BME280;5858;43.076;25.626;2023-10-19T08:37:10;99171.66;;;18.07;51.02
11605;BME280;5858;43.076;25.626;2023-10-19T08:39:37;99092.84;;;17.61;49.54
11605;BME280;5858;43.076;25.626;2023-10-19T08:42:04;99185.88;;;18.14;48.70
11605;BME280;5858;43.076;25.626;2023-10-19T08:44:32;99154.34;;;18.08;49.16
11605;BME280;5858;43.076;25.626;2023-10-19T08:47:01;99184.81;;;18.38;48.77
11605;BME280;5858;43.076;25.626;2023-10-19T08:49:31;99056.41;;;17.76;48.78
11605;BME280;5858;43.076;25.626;2023-10-19T08:51:59;99176.06;;;18.60;47.95
11605;BME280;5858;43.076;25.626;2023-10-19T08:54:29;99177.34;;;18.80;47.79
11605;BME280;5858;43.076;25.626;2023-10-19T08:56:59;99148.03;;;18.66;46.65
11605;BME280;5858;43.076;25.626;2023-10-19T08:59:26;99191.00;;;18.85;47.03
11605;BME280;5858;43.076;25.626;2023-10-19T09:02:03;99133.78;;;18.70;47.29
11605;BME280;5858;43.076;25.626;2023-10-19T09:04:34;99157.47;;;19.03;46.26
11605;BME280;5858;43.076;25.626;2023-10-19T09:07:07;99083.44;;;18.74;45.75
11605;BME280;5858;43.076;25.626;2023-10-19T09:09:35;99156.72;;;19.36;45.40
11605;BME280;5858;43.076;25.626;2023-10-19T09:12:06;99147.75;;;19.36;44.66
11605;BME280;5858;43.076;25.626;2023-10-19T09:14:35;99142.03;;;19.49;45.04
11605;BME280;5858;43.076;25.626;2023-10-19T09:17:08;99073.34;;;19.15;44.65
11605;BME280;5858;43.076;25.626;2023-10-19T09:19:37;99001.97;;;18.81;43.49
11605;BME280;5858;43.076;25.626;2023-10-19T09:22:13;99108.75;;;19.70;45.15
11605;BME280;5858;43.076;25.626;2023-10-19T09:24:44;99121.28;;;19.88;43.68
11605;BME280;5858;43.076;25.626;2023-10-19T09:27:11;99118.13;;;19.96;43.15
11605;BME280;5858;43.076;25.626;2023-10-19T09:29:42;99131.53;;;20.03;43.12
11605;BME280;5858;43.076;25.626;2023-10-19T09:32:10;99114.97;;;20.04;42.89
11605;BME280;5858;43.076;25.626;2023-10-19T09:34:39;99118.91;;;20.13;41.48
11605;BME280;5858;43.076;25.626;2023-10-19T09:37:11;99102.28;;;20.10;40.94
11605;BME280;5858;43.076;25.626;2023-10-19T09:39:38;99098.31;;;20.18;41.29
11605;BME280;5858;43.076;25.626;2023-10-19T09:42:12;99103.63;;;20.29;40.75
11605;BME280;5858;43.076;25.626;2023-10-19T09:44:44;99087.91;;;20.31;40.69
11605;BME280;5858;43.076;25.626;2023-10-19T09:47:14;99035.63;;;20.02;39.93
11605;BME280;5858;43.076;25.626;2023-10-19T09:49:42;99091.69;;;20.47;40.26
11605;BME280;5858;43.076;25.626;2023-10-19T09:52:10;98981.53;;;19.79;40.36
11605;BME280;5858;43.076;25.626;2023-10-19T09:54:52;99092.13;;;20.61;40.09
11605;BME280;5858;43.076;25.626;2023-10-19T09:57:30;99085.34;;;20.63;40.41
11605;BME280;5858;43.076;25.626;2023-10-19T10:00:02;98988.91;;;20.00;39.05
11605;BME280;5858;43.076;25.626;2023-10-19T10:02:35;99059.25;;;20.40;38.71
11605;BME280;5858;43.076;25.626;2023-10-19T10:05:02;99048.34;;;20.62;39.20
11605;BME280;5858;43.076;25.626;2023-10-19T10:07:30;99077.78;;;20.92;39.41
11605;BME280;5858;43.076;25.626;2023-10-19T10:09:57;99073.22;;;20.98;39.01
11605;BME280;5858;43.076;25.626;2023-10-19T10:12:25;99000.13;;;20.53;39.07
11605;BME280;5858;43.076;25.626;2023-10-19T10:14:58;99062.28;;;20.93;38.55
11605;BME280;5858;43.076;25.626;2023-10-19T10:17:27;99020.81;;;20.81;39.16
11605;BME280;5858;43.076;25.626;2023-10-19T10:19:56;98977.72;;;20.67;39.29
11605;BME280;5858;43.076;25.626;2023-10-19T10:22:44;99045.13;;;21.19;37.64
11605;BME280;5858;43.076;25.626;2023-10-19T10:25:25;99047.66;;;21.26;36.82
11605;BME280;5858;43.076;25.626;2023-10-19T10:27:55;98983.44;;;20.98;37.19
11605;BME280;5858;43.076;25.626;2023-10-19T10:30:22;99050.03;;;21.49;36.72
11605;BME280;5858;43.076;25.626;2023-10-19T10:32:50;98979.66;;;20.99;36.71
11605;BME280;5858;43.076;25.626;2023-10-19T10:35:56;99022.06;;;21.27;36.84
11605;BME280;5858;43.076;25.626;2023-10-19T10:38:23;99050.28;;;21.48;36.28
11605;BME280;5858;43.076;25.626;2023-10-19T10:40:50;99039.13;;;21.49;36.25
11605;BME280;5858;43.076;25.626;2023-10-19T10:43:19;99040.84;;;21.60;37.00
11605;BME280;5858;43.076;25.626;2023-10-19T10:45:47;99032.06;;;21.48;36.39
11605;BME280;5858;43.076;25.626;2023-10-19T10:48:14;99032.56;;;21.45;36.75
11605;BME280;5858;43.076;25.626;2023-10-19T10:50:41;99036.44;;;21.54;36.81
11605;BME280;5858;43.076;25.626;2023-10-19T10:53:12;99020.38;;;21.53;36.97
11605;BME280;5858;43.076;25.626;2023-10-19T10:55:40;99016.88;;;21.57;36.79
11605;BME280;5858;43.076;25.626;2023-10-19T10:58:08;99011.94;;;21.54;36.92
11605;BME280;5858;43.076;25.626;2023-10-19T11:00:42;98942.84;;;21.23;37.44
11605;BME280;5858;43.076;25.626;2023-10-19T11:03:11;98969.97;;;21.45;36.90
11605;BME280;5858;43.076;25.626;2023-10-19T11:05:41;98990.47;;;21.63;36.54
11605;BME280;5858;43.076;25.626;2023-10-19T11:08:13;98920.00;;;21.24;37.10
11605;BME280;5858;43.076;25.626;2023-10-19T11:10:42;98955.78;;;21.43;36.59
11605;BME280;5858;43.076;25.626;2023-10-19T11:13:13;98926.56;;;21.28;36.96
11605;BME280;5858;43.076;25.626;2023-10-19T11:15:48;98987.25;;;21.71;37.21
11605;BME280;5858;43.076;25.626;2023-10-19T11:18:28;98985.88;;;21.68;37.48
11605;BME280;5858;43.076;25.626;2023-10-19T11:20:55;98979.63;;;21.68;37.00
11605;BME280;5858;43.076;25.626;2023-10-19T11:23:39;98985.09;;;21.73;37.58
11605;BME280;5858;43.076;25.626;2023-10-19T11:26:07;98911.91;;;21.34;37.40
11605;BME280;5858;43.076;25.626;2023-10-19T11:28:35;98976.09;;;21.73;37.13
11605;BME280;5858;43.076;25.626;2023-10-19T11:31:12;98870.44;;;21.22;37.68
11605;BME280;5858;43.076;25.626;2023-10-19T11:33:40;98959.84;;;21.83;37.44
11605;BME280;5858;43.076;25.626;2023-10-19T11:36:07;98981.66;;;21.93;36.77
11605;BME280;5858;43.076;25.626;2023-10-19T11:38:36;98958.50;;;21.90;37.68
11605;BME280;5858;43.076;25.626;2023-10-19T11:41:03;98941.00;;;21.76;36.69
11605;BME280;5858;43.076;25.626;2023-10-19T11:43:30;98970.25;;;21.96;36.47
11605;BME280;5858;43.076;25.626;2023-10-19T11:45:56;98930.59;;;21.68;36.95
11605;BME280;5858;43.076;25.626;2023-10-19T11:48:23;98967.03;;;22.04;37.30
11605;BME280;5858;43.076;25.626;2023-10-19T11:50:51;98931.72;;;21.72;36.96
11605;BME280;5858;43.076;25.626;2023-10-19T11:53:19;98954.97;;;21.95;36.58
11605;BME280;5858;43.076;25.626;2023-10-19T11:55:47;98961.06;;;22.12;36.64
11605;BME280;5858;43.076;25.626;2023-10-19T11:58:16;98952.53;;;21.93;35.88
11605;BME280;5858;43.076;25.626;2023-10-19T12:00:44;98952.00;;;21.96;36.50
11605;BME280;5858;43.076;25.626;2023-10-19T12:03:14;98957.78;;;22.10;36.96
11605;BME280;5858;43.076;25.626;2023-10-19T12:05:40;98951.78;;;22.08;36.01
11605;BME280;5858;43.076;25.626;2023-10-19T12:08:07;98927.72;;;21.90;36.28
11605;BME280;5858;43.076;25.626;2023-10-19T12:10:34;98962.41;;;22.05;35.81
11605;BME280;5858;43.076;25.626;2023-10-19T12:13:04;98939.50;;;22.06;35.73
11605;BME280;5858;43.076;25.626;2023-10-19T12:15:35;98933.53;;;22.09;36.17
11605;BME280;5858;43.076;25.626;2023-10-19T12:18:02;98930.00;;;22.13;36.47
11605;BME280;5858;43.076;25.626;2023-10-19T12:20:30;98920.47;;;22.21;36.00
11605;BME280;5858;43.076;25.626;2023-10-19T12:22:57;98921.56;;;22.20;36.09
11605;BME280;5858;43.076;25.626;2023-10-19T12:25:24;98900.81;;;22.09;36.41
11605;BME280;5858;43.076;25.626;2023-10-19T12:27:57;98845.34;;;21.67;35.54
11605;BME280;5858;43.076;25.626;2023-10-19T12:30:26;98928.66;;;22.21;35.29
11605;BME280;5858;43.076;25.626;2023-10-19T12:33:00;98925.44;;;22.29;35.84
11605;BME280;5858;43.076;25.626;2023-10-19T12:35:30;98889.38;;;22.12;35.88
11605;BME280;5858;43.076;25.626;2023-10-19T12:38:10;98911.53;;;22.30;36.12
11605;BME280;5858;43.076;25.626;2023-10-19T12:40:42;98915.34;;;22.40;36.00
11605;BME280;5858;43.076;25.626;2023-10-19T12:43:10;98836.19;;;21.99;35.50
11605;BME280;5858;43.076;25.626;2023-10-19T12:45:39;98900.34;;;22.32;35.02
11605;BME280;5858;43.076;25.626;2023-10-19T12:48:07;98854.22;;;22.10;34.94
11605;BME280;5858;43.076;25.626;2023-10-19T12:50:37;98911.00;;;22.39;34.74
11605;BME280;5858;43.076;25.626;2023-10-19T12:53:06;98859.91;;;21.98;35.38
11605;BME280;5858;43.076;25.626;2023-10-19T12:55:34;98854.78;;;22.07;34.56
11605;BME280;5858;43.076;25.626;2023-10-19T12:58:03;98893.53;;;22.29;35.51
11605;BME280;5858;43.076;25.626;2023-10-19T13:00:34;98743.47;;;21.48;35.30
11605;BME280;5858;43.076;25.626;2023-10-19T13:03:11;98834.03;;;22.01;35.25
11605;BME280;5858;43.076;25.626;2023-10-19T13:05:43;98866.78;;;22.21;34.72
11605;BME280;5858;43.076;25.626;2023-10-19T13:08:12;98762.81;;;21.52;34.86
11605;BME280;5858;43.076;25.626;2023-10-19T13:10:43;98875.22;;;22.20;34.79
11605;BME280;5858;43.076;25.626;2023-10-19T13:13:13;98822.56;;;21.94;35.15
11605;BME280;5858;43.076;25.626;2023-10-19T13:15:43;98859.69;;;22.15;35.50
11605;BME280;5858;43.076;25.626;2023-10-19T13:18:13;98868.72;;;22.31;36.09
11605;BME280;5858;43.076;25.626;2023-10-19T13:20:46;98847.72;;;22.21;35.16